sensor_id;sensor_type;location;lat;lon;timestamp;pressure;altitude;pressure_sealevel;temperature;humidity
29045;BME280;16133;49.486;12.176;2022-10-16T00:00:33;97115.94;;;14.01;100.00
29045;BME280;16133;49.486;12.176;2022-10-16T00:02:59;97130.53;;;13.99;100.00
29045;BME280;16133;49.486;12.176;2022-10-16T00:05:24;97140.56;;;13.97;100.00
29045;BME280;16133;49.486;12.176;2022-10-16T00:07:50;97140.78;;;13.95;100.00
29045;BME280;16133;49.486;12.176;2022-10-16T00:10:15;97135.66;;;13.94;100.00
29045;BME280;16133;49.486;12.176;2022-10-16T00:12:40;97137.50;;;13.93;100.00
29045;BME280;16133;49.486;12.176;2022-10-16T00:15:06;97131.56;;;13.91;100.00
29045;BME280;16133;49.486;12.176;2022-10-16T00:17:32;97124.34;;;13.92;100.00
29045;BME280;16133;49.486;12.176;2022-10-16T00:19:57;97135.03;;;13.92;100.00
29045;BME280;16133;49.486;12.176;2022-10-16T00:22:23;97142.00;;;13.93;100.00
29045;BME280;16133;49.486;12.176;2022-10-16T00:24:49;97139.34;;;13.93;100.00
29045;BME280;16133;49.486;12.176;2022-10-16T00:27:14;97134.63;;;13.95;100.00
29045;BME280;16133;49.486;12.176;2022-10-16T00:29:40;97123.34;;;13.86;100.00
29045;BME280;16133;49.486;12.176;2022-10-16T00:32:05;97140.56;;;13.97;100.00
29045;BME280;16133;49.486;12.176;2022-10-16T00:34:31;97130.91;;;13.96;100.00
29045;BME280;16133;49.486;12.176;2022-10-16T00:36:56;97131.75;;;13.96;100.00
29045;BME280;16133;49.486;12.176;2022-10-16T00:39:21;97135.25;;;13.97;100.00
29045;BME280;16133;49.486;12.176;2022-10-16T00:41:47;97143.47;;;13.95;100.00
29045;BME280;16133;49.486;12.176;2022-10-16T00:47:34;97155.16;;;13.94;100.00
29045;BME280;16133;49.486;12.176;2022-10-16T00:52:48;97143.66;;;13.94;100.00
29045;BME280;16133;49.486;12.176;2022-10-16T00:55:15;97146.75;;;13.91;100.00
29045;BME280;16133;49.486;12.176;2022-10-16T00:57:41;97146.34;;;13.87;100.00
29045;BME280;16133;49.486;12.176;2022-10-16T01:00:11;97159.03;;;13.85;100.00
29045;BME280;16133;49.486;12.176;2022-10-16T01:02:37;97163.16;;;13.81;100.00
29045;BME280;16133;49.486;12.176;2022-10-16T01:05:04;97163.38;;;13.79;100.00
29045;BME280;16133;49.486;12.176;2022-10-16T01:13:11;97155.97;;;13.75;100.00
29045;BME280;16133;49.486;12.176;2022-10-16T01:18:30;97163.56;;;13.71;100.00
29045;BME280;16133;49.486;12.176;2022-10-16T01:26:04;97153.94;;;13.70;100.00
29045;BME280;16133;49.486;12.176;2022-10-16T01:28:49;97155.97;;;13.68;100.00
29045;BME280;16133;49.486;12.176;2022-10-16T01:31:19;97169.28;;;13.68;100.00
29045;BME280;16133;49.486;12.176;2022-10-16T01:33:50;97173.59;;;13.69;100.00
29045;BME280;16133;49.486;12.176;2022-10-16T01:36:23;97163.78;;;13.70;100.00
29045;BME280;16133;49.486;12.176;2022-10-16T01:38:51;97156.38;;;13.65;100.00
29045;BME280;16133;49.486;12.176;2022-10-16T01:41:29;97164.59;;;13.64;100.00
29045;BME280;16133;49.486;12.176;2022-10-16T01:44:02;97156.78;;;13.62;100.00
29045;BME280;16133;49.486;12.176;2022-10-16T01:46:31;97158.84;;;13.60;100.00
29045;BME280;16133;49.486;12.176;2022-10-16T01:48:57;97153.53;;;13.60;100.00
29045;BME280;16133;49.486;12.176;2022-10-16T01:51:24;97145.53;;;13.60;100.00
29045;BME280;16133;49.486;12.176;2022-10-16T01:53:54;97155.16;;;13.61;100.00
29045;BME280;16133;49.486;12.176;2022-10-16T01:56:21;97160.47;;;13.61;100.00
29045;BME280;16133;49.486;12.176;2022-10-16T01:58:55;97166.84;;;13.60;100.00
29045;BME280;16133;49.486;12.176;2022-10-16T02:01:22;97160.06;;;13.58;100.00
29045;BME280;16133;49.486;12.176;2022-10-16T02:03:51;97167.25;;;13.57;100.00
29045;BME280;16133;49.486;12.176;2022-10-16T02:06:18;97167.47;;;13.56;100.00
29045;BME280;16133;49.486;12.176;2022-10-16T02:08:43;97166.84;;;13.54;100.00
29045;BME280;16133;49.486;12.176;2022-10-16T02:11:10;97167.06;;;13.52;100.00
29045;BME280;16133;49.486;12.176;2022-10-16T02:13:45;97176.06;;;13.51;100.00
29045;BME280;16133;49.486;12.176;2022-10-16T02:16:13;97173.59;;;13.50;100.00
29045;BME280;16133;49.486;12.176;2022-10-16T02:18:39;97172.75;;;13.49;100.00
29045;BME280;16133;49.486;12.176;2022-10-16T02:21:14;97175.66;;;13.48;100.00
29045;BME280;16133;49.486;12.176;2022-10-16T02:26:30;97168.25;;;13.43;100.00
29045;BME280;16133;49.486;12.176;2022-10-16T02:29:02;97161.28;;;13.42;100.00
29045;BME280;16133;49.486;12.176;2022-10-16T02:31:33;97158.84;;;13.40;100.00
29045;BME280;16133;49.486;12.176;2022-10-16T02:34:01;97163.34;;;13.40;100.00
29045;BME280;16133;49.486;12.176;2022-10-16T02:36:30;97175.84;;;13.39;100.00
29045;BME280;16133;49.486;12.176;2022-10-16T02:38:57;97183.84;;;13.39;100.00
29045;BME280;16133;49.486;12.176;2022-10-16T02:41:26;97187.53;;;13.38;100.00
29045;BME280;16133;49.486;12.176;2022-10-16T02:43:52;97184.25;;;13.36;100.00
29045;BME280;16133;49.486;12.176;2022-10-16T02:46:18;97192.03;;;13.38;100.00
29045;BME280;16133;49.486;12.176;2022-10-16T02:48:44;97191.00;;;13.39;100.00
29045;BME280;16133;49.486;12.176;2022-10-16T02:51:09;97192.25;;;13.43;100.00
29045;BME280;16133;49.486;12.176;2022-10-16T02:53:35;97192.06;;;13.45;100.00
29045;BME280;16133;49.486;12.176;2022-10-16T02:56:01;97201.47;;;13.47;100.00
29045;BME280;16133;49.486;12.176;2022-10-16T02:58:26;97194.09;;;13.49;100.00
29045;BME280;16133;49.486;12.176;2022-10-16T03:00:52;97196.56;;;13.51;100.00
29045;BME280;16133;49.486;12.176;2022-10-16T03:03:17;97198.22;;;13.52;100.00
29045;BME280;16133;49.486;12.176;2022-10-16T03:05:43;97202.31;;;13.54;100.00
29045;BME280;16133;49.486;12.176;2022-10-16T03:08:11;97200.28;;;13.56;100.00
29045;BME280;16133;49.486;12.176;2022-10-16T03:10:37;97194.72;;;13.58;100.00
29045;BME280;16133;49.486;12.176;2022-10-16T03:13:02;97194.53;;;13.59;100.00
29045;BME280;16133;49.486;12.176;2022-10-16T03:15:28;97185.72;;;13.59;100.00
29045;BME280;16133;49.486;12.176;2022-10-16T03:17:54;97200.88;;;13.58;100.00
29045;BME280;16133;49.486;12.176;2022-10-16T03:20:20;97203.53;;;13.58;100.00
29045;BME280;16133;49.486;12.176;2022-10-16T03:22:45;97199.22;;;13.57;100.00
29045;BME280;16133;49.486;12.176;2022-10-16T03:25:11;97188.38;;;13.52;100.00
29045;BME280;16133;49.486;12.176;2022-10-16T03:27:36;97203.13;;;13.55;100.00
29045;BME280;16133;49.486;12.176;2022-10-16T03:30:02;97204.78;;;13.56;100.00
29045;BME280;16133;49.486;12.176;2022-10-16T03:32:28;97196.56;;;13.57;100.00
29045;BME280;16133;49.486;12.176;2022-10-16T03:34:53;97199.88;;;13.59;100.00
29045;BME280;16133;49.486;12.176;2022-10-16T03:37:19;97204.78;;;13.62;100.00
29045;BME280;16133;49.486;12.176;2022-10-16T03:39:45;97197.41;;;13.64;100.00
29045;BME280;16133;49.486;12.176;2022-10-16T03:42:11;97199.88;;;13.66;100.00
29045;BME280;16133;49.486;12.176;2022-10-16T03:44:37;97205.19;;;13.66;100.00
29045;BME280;16133;49.486;12.176;2022-10-16T03:47:02;97198.22;;;13.65;100.00
29045;BME280;16133;49.486;12.176;2022-10-16T03:49:28;97209.69;;;13.65;100.00
29045;BME280;16133;49.486;12.176;2022-10-16T03:54:21;97210.53;;;13.66;100.00
29045;BME280;16133;49.486;12.176;2022-10-16T03:56:47;97214.03;;;13.66;100.00
29045;BME280;16133;49.486;12.176;2022-10-16T03:59:13;97217.69;;;13.65;100.00
29045;BME280;16133;49.486;12.176;2022-10-16T04:01:38;97219.75;;;13.63;100.00
29045;BME280;16133;49.486;12.176;2022-10-16T04:04:04;97219.13;;;13.61;100.00
29045;BME280;16133;49.486;12.176;2022-10-16T04:06:29;97229.78;;;13.61;100.00
29045;BME280;16133;49.486;12.176;2022-10-16T04:08:55;97235.94;;;13.62;100.00
29045;BME280;16133;49.486;12.176;2022-10-16T04:11:21;97227.94;;;13.62;100.00
29045;BME280;16133;49.486;12.176;2022-10-16T04:13:46;97222.84;;;13.60;100.00
29045;BME280;16133;49.486;12.176;2022-10-16T04:16:12;97230.00;;;13.60;100.00
29045;BME280;16133;49.486;12.176;2022-10-16T04:18:37;97232.28;;;13.56;100.00
29045;BME280;16133;49.486;12.176;2022-10-16T04:21:06;97225.69;;;13.52;100.00
29045;BME280;16133;49.486;12.176;2022-10-16T04:23:32;97231.41;;;13.49;100.00
29045;BME280;16133;49.486;12.176;2022-10-16T04:25:58;97235.53;;;13.45;100.00
29045;BME280;16133;49.486;12.176;2022-10-16T04:28:23;97240.84;;;13.45;100.00
29045;BME280;16133;49.486;12.176;2022-10-16T04:30:49;97234.69;;;13.45;100.00
29045;BME280;16133;49.486;12.176;2022-10-16T04:33:14;97246.19;;;13.45;100.00
29045;BME280;16133;49.486;12.176;2022-10-16T04:35:39;97241.47;;;13.47;100.00
29045;BME280;16133;49.486;12.176;2022-10-16T04:38:05;97229.97;;;13.47;100.00
29045;BME280;16133;49.486;12.176;2022-10-16T04:40:30;97237.78;;;13.48;100.00
29045;BME280;16133;49.486;12.176;2022-10-16T04:43:02;97231.41;;;13.49;100.00
29045;BME280;16133;49.486;12.176;2022-10-16T04:45:27;97233.88;;;13.51;100.00
29045;BME280;16133;49.486;12.176;2022-10-16T04:47:56;97239.63;;;13.54;100.00
29045;BME280;16133;49.486;12.176;2022-10-16T04:50:22;97236.13;;;13.54;100.00
29045;BME280;16133;49.486;12.176;2022-10-16T04:52:47;97242.28;;;13.54;100.00
29045;BME280;16133;49.486;12.176;2022-10-16T04:55:12;97237.19;;;13.53;100.00
29045;BME280;16133;49.486;12.176;2022-10-16T04:57:38;97246.19;;;13.52;100.00
29045;BME280;16133;49.486;12.176;2022-10-16T05:00:04;97245.38;;;13.51;100.00
29045;BME280;16133;49.486;12.176;2022-10-16T05:02:30;97256.03;;;13.51;100.00
29045;BME280;16133;49.486;12.176;2022-10-16T05:04:55;97251.53;;;13.52;100.00
29045;BME280;16133;49.486;12.176;2022-10-16T05:07:21;97245.38;;;13.51;100.00
29045;BME280;16133;49.486;12.176;2022-10-16T05:09:46;97254.78;;;13.54;100.00
29045;BME280;16133;49.486;12.176;2022-10-16T05:12:11;97250.28;;;13.54;100.00
29045;BME280;16133;49.486;12.176;2022-10-16T05:14:37;97259.13;;;13.55;100.00
29045;BME280;16133;49.486;12.176;2022-10-16T05:17:02;97258.94;;;13.56;100.00
29045;BME280;16133;49.486;12.176;2022-10-16T05:19:28;97256.25;;;13.56;100.00
29045;BME280;16133;49.486;12.176;2022-10-16T05:21:53;97260.53;;;13.57;100.00
29045;BME280;16133;49.486;12.176;2022-10-16T05:24:18;97255.03;;;13.59;100.00
29045;BME280;16133;49.486;12.176;2022-10-16T05:26:44;97262.19;;;13.58;100.00
29045;BME280;16133;49.486;12.176;2022-10-16T05:29:09;97269.19;;;13.59;100.00
29045;BME280;16133;49.486;12.176;2022-10-16T05:31:35;97255.22;;;13.57;100.00
29045;BME280;16133;49.486;12.176;2022-10-16T05:34:01;97270.59;;;13.55;100.00
29045;BME280;16133;49.486;12.176;2022-10-16T05:36:27;97269.97;;;13.53;100.00
29045;BME280;16133;49.486;12.176;2022-10-16T05:38:52;97285.34;;;13.51;100.00
29045;BME280;16133;49.486;12.176;2022-10-16T05:41:18;97284.53;;;13.51;100.00
29045;BME280;16133;49.486;12.176;2022-10-16T05:43:49;97285.34;;;13.51;100.00
29045;BME280;16133;49.486;12.176;2022-10-16T05:46:16;97282.28;;;13.54;100.00
29045;BME280;16133;49.486;12.176;2022-10-16T05:48:41;97282.09;;;13.56;100.00
29045;BME280;16133;49.486;12.176;2022-10-16T05:51:09;97276.53;;;13.57;100.00
29045;BME280;16133;49.486;12.176;2022-10-16T05:53:37;97272.84;;;13.58;100.00
29045;BME280;16133;49.486;12.176;2022-10-16T05:56:04;97280.66;;;13.60;100.00
29045;BME280;16133;49.486;12.176;2022-10-16T05:58:32;97264.25;;;13.63;100.00
29045;BME280;16133;49.486;12.176;2022-10-16T06:01:00;97267.53;;;13.65;100.00
29045;BME280;16133;49.486;12.176;2022-10-16T06:03:26;97264.88;;;13.65;100.00
29045;BME280;16133;49.486;12.176;2022-10-16T06:05:52;97280.06;;;13.64;100.00
29045;BME280;16133;49.486;12.176;2022-10-16T06:08:19;97280.06;;;13.64;100.00
29045;BME280;16133;49.486;12.176;2022-10-16T06:10:45;97288.06;;;13.64;100.00
29045;BME280;16133;49.486;12.176;2022-10-16T06:13:12;97287.03;;;13.65;100.00
29045;BME280;16133;49.486;12.176;2022-10-16T06:15:38;97295.03;;;13.65;100.00
29045;BME280;16133;49.486;12.176;2022-10-16T06:18:04;97295.03;;;13.65;100.00
29045;BME280;16133;49.486;12.176;2022-10-16T06:20:30;97296.66;;;13.66;100.00
29045;BME280;16133;49.486;12.176;2022-10-16T06:22:56;97305.28;;;13.68;100.00
29045;BME280;16133;49.486;12.176;2022-10-16T06:25:22;97297.50;;;13.67;100.00
29045;BME280;16133;49.486;12.176;2022-10-16T06:27:47;97317.19;;;13.72;100.00
29045;BME280;16133;49.486;12.176;2022-10-16T06:30:13;97325.00;;;13.80;100.00
29045;BME280;16133;49.486;12.176;2022-10-16T06:32:38;97319.06;;;13.92;100.00
29045;BME280;16133;49.486;12.176;2022-10-16T06:35:04;97318.06;;;13.99;100.00
29045;BME280;16133;49.486;12.176;2022-10-16T06:37:29;97327.53;;;14.08;100.00
29045;BME280;16133;49.486;12.176;2022-10-16T06:39:55;97340.66;;;14.23;100.00
29045;BME280;16133;49.486;12.176;2022-10-16T06:42:20;97358.75;;;14.34;100.00
29045;BME280;16133;49.486;12.176;2022-10-16T06:44:45;97372.75;;;14.43;100.00
29045;BME280;16133;49.486;12.176;2022-10-16T06:47:11;97373.78;;;14.48;100.00
29045;BME280;16133;49.486;12.176;2022-10-16T06:49:36;97396.38;;;14.59;100.00
29045;BME280;16133;49.486;12.176;2022-10-16T06:52:02;97419.59;;;14.65;100.00
29045;BME280;16133;49.486;12.176;2022-10-16T06:54:28;97425.56;;;14.67;100.00
29045;BME280;16133;49.486;12.176;2022-10-16T06:56:53;97440.34;;;14.69;100.00
29045;BME280;16133;49.486;12.176;2022-10-16T06:59:20;97456.16;;;14.77;100.00
29045;BME280;16133;49.486;12.176;2022-10-16T07:01:46;97469.75;;;14.89;100.00
29045;BME280;16133;49.486;12.176;2022-10-16T07:04:11;97483.31;;;15.01;100.00
29045;BME280;16133;49.486;12.176;2022-10-16T07:06:36;97491.34;;;15.14;100.00
29045;BME280;16133;49.486;12.176;2022-10-16T07:09:04;97507.34;;;15.33;100.00
29045;BME280;16133;49.486;12.176;2022-10-16T07:11:30;97515.38;;;15.53;100.00
29045;BME280;16133;49.486;12.176;2022-10-16T07:13:56;97527.47;;;15.75;100.00
29045;BME280;16133;49.486;12.176;2022-10-16T07:16:24;97537.09;;;15.96;100.00
29045;BME280;16133;49.486;12.176;2022-10-16T07:18:50;97541.38;;;16.10;100.00
29045;BME280;16133;49.486;12.176;2022-10-16T07:21:19;97545.06;;;16.16;100.00
29045;BME280;16133;49.486;12.176;2022-10-16T07:23:49;97555.97;;;16.21;100.00
29045;BME280;16133;49.486;12.176;2022-10-16T07:26:15;97573.88;;;16.27;100.00
29045;BME280;16133;49.486;12.176;2022-10-16T07:28:42;97574.91;;;16.33;100.00
29045;BME280;16133;49.486;12.176;2022-10-16T07:31:11;97579.81;;;16.36;100.00
29045;BME280;16133;49.486;12.176;2022-10-16T07:33:39;97577.53;;;16.39;100.00
29045;BME280;16133;49.486;12.176;2022-10-16T07:36:07;97578.53;;;16.45;100.00
29045;BME280;16133;49.486;12.176;2022-10-16T07:38:32;97588.63;;;16.49;100.00
29045;BME280;16133;49.486;12.176;2022-10-16T07:40:59;97583.06;;;16.51;100.00
29045;BME280;16133;49.486;12.176;2022-10-16T07:43:26;97588.63;;;16.49;100.00
29045;BME280;16133;49.486;12.176;2022-10-16T07:45:52;97587.59;;;16.50;100.00
29045;BME280;16133;49.486;12.176;2022-10-16T07:48:22;97591.50;;;16.54;100.00
29045;BME280;16133;49.486;12.176;2022-10-16T07:50:48;97594.16;;;16.61;100.00
29045;BME280;16133;49.486;12.176;2022-10-16T07:53:14;97598.66;;;16.73;100.00
29045;BME280;16133;49.486;12.176;2022-10-16T07:55:39;97599.78;;;16.91;100.00
29045;BME280;16133;49.486;12.176;2022-10-16T07:58:05;97612.03;;;17.11;100.00
29045;BME280;16133;49.486;12.176;2022-10-16T08:00:32;97610.25;;;17.30;100.00
29045;BME280;16133;49.486;12.176;2022-10-16T08:02:58;97615.09;;;17.46;100.00
29045;BME280;16133;49.486;12.176;2022-10-16T08:05:31;97624.75;;;17.54;100.00
29045;BME280;16133;49.486;12.176;2022-10-16T08:07:57;97616.69;;;17.54;100.00
29045;BME280;16133;49.486;12.176;2022-10-16T08:10:24;97617.34;;;17.49;100.00
29045;BME280;16133;49.486;12.176;2022-10-16T08:12:50;97605.91;;;17.36;100.00
29045;BME280;16133;49.486;12.176;2022-10-16T08:15:16;97619.50;;;17.34;100.00
29045;BME280;16133;49.486;12.176;2022-10-16T08:17:41;97629.59;;;17.39;100.00
29045;BME280;16133;49.486;12.176;2022-10-16T08:20:07;97632.66;;;17.42;100.00
29045;BME280;16133;49.486;12.176;2022-10-16T08:22:33;97639.81;;;17.55;100.00
29045;BME280;16133;49.486;12.176;2022-10-16T08:24:58;97658.03;;;17.78;100.00
29045;BME280;16133;49.486;12.176;2022-10-16T08:27:24;97651.97;;;18.07;100.00
29045;BME280;16133;49.486;12.176;2022-10-16T08:29:49;97660.97;;;18.37;100.00
29045;BME280;16133;49.486;12.176;2022-10-16T08:32:15;97661.78;;;18.63;100.00
29045;BME280;16133;49.486;12.176;2022-10-16T08:34:40;97667.97;;;18.81;100.00
29045;BME280;16133;49.486;12.176;2022-10-16T08:37:06;97661.00;;;18.92;100.00
29045;BME280;16133;49.486;12.176;2022-10-16T08:39:33;97656.06;;;19.07;100.00
29045;BME280;16133;49.486;12.176;2022-10-16T08:42:15;97652.31;;;19.08;100.00
29045;BME280;16133;49.486;12.176;2022-10-16T08:45:10;97649.31;;;18.98;100.00
29045;BME280;16133;49.486;12.176;2022-10-16T08:50:29;97645.03;;;18.79;100.00
29045;BME280;16133;49.486;12.176;2022-10-16T08:52:57;97652.81;;;18.69;100.00
29045;BME280;16133;49.486;12.176;2022-10-16T08:55:30;97648.19;;;18.57;100.00
29045;BME280;16133;49.486;12.176;2022-10-16T08:57:57;97650.38;;;18.42;100.00
29045;BME280;16133;49.486;12.176;2022-10-16T09:00:23;97646.72;;;18.19;100.00
29045;BME280;16133;49.486;12.176;2022-10-16T09:02:57;97645.31;;;17.91;100.00
29045;BME280;16133;49.486;12.176;2022-10-16T09:08:12;97654.56;;;17.39;100.00
29045;BME280;16133;49.486;12.176;2022-10-16T09:10:58;97659.56;;;17.29;100.00
29045;BME280;16133;49.486;12.176;2022-10-16T09:23:35;97647.63;;;16.87;100.00
29045;BME280;16133;49.486;12.176;2022-10-16T09:26:02;97654.28;;;16.71;100.00
29045;BME280;16133;49.486;12.176;2022-10-16T09:28:28;97653.06;;;16.67;100.00
29045;BME280;16133;49.486;12.176;2022-10-16T09:30:54;97656.78;;;16.73;100.00
29045;BME280;16133;49.486;12.176;2022-10-16T09:33:23;97658.97;;;16.89;100.00
29045;BME280;16133;49.486;12.176;2022-10-16T09:35:54;97652.69;;;17.02;100.00
29045;BME280;16133;49.486;12.176;2022-10-16T09:38:26;97647.56;;;17.00;100.00
29045;BME280;16133;49.486;12.176;2022-10-16T09:40:54;97645.19;;;16.86;100.00
29045;BME280;16133;49.486;12.176;2022-10-16T09:43:26;97649.16;;;16.63;100.00
29045;BME280;16133;49.486;12.176;2022-10-16T09:48:43;97651.53;;;16.27;100.00
29045;BME280;16133;49.486;12.176;2022-10-16T09:51:22;97651.13;;;16.17;100.00
29045;BME280;16133;49.486;12.176;2022-10-16T09:53:49;97644.97;;;16.16;100.00
29045;BME280;16133;49.486;12.176;2022-10-16T09:56:30;97646.00;;;16.09;100.00
29045;BME280;16133;49.486;12.176;2022-10-16T09:58:59;97647.03;;;16.08;100.00
29045;BME280;16133;49.486;12.176;2022-10-16T10:01:36;97646.81;;;16.03;100.00
29045;BME280;16133;49.486;12.176;2022-10-16T10:04:06;97644.97;;;16.03;100.00
29045;BME280;16133;49.486;12.176;2022-10-16T10:06:36;97639.00;;;15.95;100.00
29045;BME280;16133;49.486;12.176;2022-10-16T10:09:29;97645.38;;;16.07;100.00
29045;BME280;16133;49.486;12.176;2022-10-16T10:12:00;97650.09;;;16.18;100.00
29045;BME280;16133;49.486;12.176;2022-10-16T10:14:33;97642.03;;;16.31;100.00
29045;BME280;16133;49.486;12.176;2022-10-16T10:19:54;97634.47;;;16.79;100.00
29045;BME280;16133;49.486;12.176;2022-10-16T10:25:16;97650.41;;;17.12;100.00
29045;BME280;16133;49.486;12.176;2022-10-16T10:36:34;97668.06;;;17.89;100.00
29045;BME280;16133;49.486;12.176;2022-10-16T10:39:25;97665.44;;;18.25;100.00
29045;BME280;16133;49.486;12.176;2022-10-16T10:42:05;97678.78;;;18.75;100.00
29045;BME280;16133;49.486;12.176;2022-10-16T10:53:11;97679.63;;;20.06;100.00
29045;BME280;16133;49.486;12.176;2022-10-16T10:56:07;97664.09;;;20.31;100.00
29045;BME280;16133;49.486;12.176;2022-10-16T11:04:39;97671.38;;;20.94;98.82
29045;BME280;16133;49.486;12.176;2022-10-16T11:07:32;97669.00;;;20.97;97.73
29045;BME280;16133;49.486;12.176;2022-10-16T11:10:24;97667.03;;;20.93;97.55
29045;BME280;16133;49.486;12.176;2022-10-16T11:12:56;97666.22;;;20.92;96.08
29045;BME280;16133;49.486;12.176;2022-10-16T11:15:33;97669.84;;;20.98;97.22
29045;BME280;16133;49.486;12.176;2022-10-16T11:18:06;97661.84;;;21.03;97.20
29045;BME280;16133;49.486;12.176;2022-10-16T11:20:41;97654.25;;;21.12;93.88
29045;BME280;16133;49.486;12.176;2022-10-16T11:23:28;97660.22;;;21.02;93.85
29045;BME280;16133;49.486;12.176;2022-10-16T11:25:59;97654.63;;;20.92;95.29
29045;BME280;16133;49.486;12.176;2022-10-16T11:28:31;97661.81;;;20.75;96.11
29045;BME280;16133;49.486;12.176;2022-10-16T11:31:19;97666.41;;;20.39;96.78
29045;BME280;16133;49.486;12.176;2022-10-16T11:33:53;97680.69;;;20.17;98.58
29045;BME280;16133;49.486;12.176;2022-10-16T11:36:26;97667.19;;;19.93;100.00
29045;BME280;16133;49.486;12.176;2022-10-16T11:39:16;97664.47;;;19.82;100.00
29045;BME280;16133;49.486;12.176;2022-10-16T11:41:56;97657.09;;;19.66;100.00
29045;BME280;16133;49.486;12.176;2022-10-16T11:44:36;97656.72;;;19.50;100.00
29045;BME280;16133;49.486;12.176;2022-10-16T11:47:26;97655.47;;;19.35;100.00
29045;BME280;16133;49.486;12.176;2022-10-16T11:49:58;97657.63;;;19.44;100.00
29045;BME280;16133;49.486;12.176;2022-10-16T11:55:04;97668.09;;;19.64;100.00
29045;BME280;16133;49.486;12.176;2022-10-16T11:57:33;97666.00;;;19.66;100.00
29045;BME280;16133;49.486;12.176;2022-10-16T12:00:20;97663.38;;;19.60;100.00
29045;BME280;16133;49.486;12.176;2022-10-16T12:08:12;97649.09;;;19.29;100.00
29045;BME280;16133;49.486;12.176;2022-10-16T12:10:40;97665.63;;;19.33;100.00
29045;BME280;16133;49.486;12.176;2022-10-16T12:13:33;97656.22;;;19.42;100.00
29045;BME280;16133;49.486;12.176;2022-10-16T12:16:06;97664.28;;;19.42;100.00
29045;BME280;16133;49.486;12.176;2022-10-16T12:18:32;97666.28;;;19.46;100.00
29045;BME280;16133;49.486;12.176;2022-10-16T12:20:59;97668.09;;;19.64;100.00
29045;BME280;16133;49.486;12.176;2022-10-16T12:23:30;97642.47;;;19.62;100.00
29045;BME280;16133;49.486;12.176;2022-10-16T12:25:57;97672.72;;;19.98;100.00
29045;BME280;16133;49.486;12.176;2022-10-16T12:28:28;97676.72;;;20.19;99.87
29045;BME280;16133;49.486;12.176;2022-10-16T12:30:56;97674.50;;;20.39;98.86
29045;BME280;16133;49.486;12.176;2022-10-16T12:33:30;97673.78;;;20.56;97.95
29045;BME280;16133;49.486;12.176;2022-10-16T12:35:58;97676.47;;;20.67;97.15
29045;BME280;16133;49.486;12.176;2022-10-16T12:38:51;97672.69;;;20.80;94.57
29045;BME280;16133;49.486;12.176;2022-10-16T12:43:53;97667.00;;;21.05;93.95
29045;BME280;16133;49.486;12.176;2022-10-16T12:48:44;97680.34;;;21.23;89.84
29045;BME280;16133;49.486;12.176;2022-10-16T12:51:24;97685.00;;;21.27;90.63
29045;BME280;16133;49.486;12.176;2022-10-16T12:54:13;97679.22;;;21.35;91.84
29045;BME280;16133;49.486;12.176;2022-10-16T13:22:10;97695.22;;;20.16;99.58
29045;BME280;16133;49.486;12.176;2022-10-16T13:25:06;97688.03;;;19.86;100.00
29045;BME280;16133;49.486;12.176;2022-10-16T13:27:48;97702.88;;;19.66;100.00
29045;BME280;16133;49.486;12.176;2022-10-16T13:30:19;97699.31;;;19.53;100.00
29045;BME280;16133;49.486;12.176;2022-10-16T13:32:58;97704.84;;;19.40;100.00
29045;BME280;16133;49.486;12.176;2022-10-16T13:35:27;97712.19;;;19.33;100.00
29045;BME280;16133;49.486;12.176;2022-10-16T13:38:23;97709.44;;;19.22;100.00
29045;BME280;16133;49.486;12.176;2022-10-16T13:40:59;97701.69;;;19.14;100.00
29045;BME280;16133;49.486;12.176;2022-10-16T13:46:16;97698.34;;;19.00;100.00
29045;BME280;16133;49.486;12.176;2022-10-16T13:48:42;97705.44;;;18.94;100.00
29045;BME280;16133;49.486;12.176;2022-10-16T13:51:14;97698.44;;;18.93;100.00
29045;BME280;16133;49.486;12.176;2022-10-16T13:53:40;97707.31;;;18.94;100.00
29045;BME280;16133;49.486;12.176;2022-10-16T13:56:17;97698.44;;;18.93;100.00
29045;BME280;16133;49.486;12.176;2022-10-16T13:58:43;97699.69;;;18.91;100.00
29045;BME280;16133;49.486;12.176;2022-10-16T14:01:25;97700.72;;;18.90;100.00
29045;BME280;16133;49.486;12.176;2022-10-16T14:03:52;97702.22;;;18.86;100.00
29045;BME280;16133;49.486;12.176;2022-10-16T14:06:21;97694.47;;;18.78;100.00
29045;BME280;16133;49.486;12.176;2022-10-16T14:11:48;97717.03;;;18.77;100.00
29045;BME280;16133;49.486;12.176;2022-10-16T14:14:15;97705.75;;;18.68;100.00
29045;BME280;16133;49.486;12.176;2022-10-16T14:16:42;97714.47;;;18.63;100.00
29045;BME280;16133;49.486;12.176;2022-10-16T14:19:22;97710.81;;;18.58;100.00
29045;BME280;16133;49.486;12.176;2022-10-16T14:21:50;97721.56;;;18.58;100.00
29045;BME280;16133;49.486;12.176;2022-10-16T14:24:26;97719.34;;;18.55;100.00
29045;BME280;16133;49.486;12.176;2022-10-16T14:26:53;97716.25;;;18.51;100.00
29045;BME280;16133;49.486;12.176;2022-10-16T14:29:21;97718.31;;;18.49;100.00
29045;BME280;16133;49.486;12.176;2022-10-16T14:31:55;97730.56;;;18.45;100.00
29045;BME280;16133;49.486;12.176;2022-10-16T14:34:36;97716.66;;;18.48;100.00
29045;BME280;16133;49.486;12.176;2022-10-16T14:39:49;97717.28;;;18.50;100.00
29045;BME280;16133;49.486;12.176;2022-10-16T14:42:17;97714.22;;;18.47;100.00
29045;BME280;16133;49.486;12.176;2022-10-16T14:44:44;97710.09;;;18.44;100.00
29045;BME280;16133;49.486;12.176;2022-10-16T14:47:14;97705.34;;;18.46;100.00
29045;BME280;16133;49.486;12.176;2022-10-16T14:49:41;97706.44;;;18.39;100.00